sensor_id;sensor_type;location;lat;lon;timestamp;pressure;altitude;pressure_sealevel;temperature;humidity
77867;BME280;67271;59.120;37.970;2023-06-22T00:02:45;100261.81;;;13.21;57.89
77867;BME280;67271;59.120;37.970;2023-06-22T00:05:11;100259.50;;;13.24;58.27
77867;BME280;67271;59.120;37.970;2023-06-22T00:07:36;100264.31;;;13.29;58.41
77867;BME280;67271;59.120;37.970;2023-06-22T00:10:03;100262.63;;;13.34;58.20
77867;BME280;67271;59.120;37.970;2023-06-22T00:12:29;100253.81;;;13.39;58.76
77867;BME280;67271;59.120;37.970;2023-06-22T00:14:55;100258.41;;;13.38;58.89
77867;BME280;67271;59.120;37.970;2023-06-22T00:17:20;100251.53;;;13.36;59.34
77867;BME280;67271;59.120;37.970;2023-06-22T00:19:48;100250.72;;;13.35;58.97
77867;BME280;67271;59.120;37.970;2023-06-22T00:22:19;100242.13;;;13.32;59.33
77867;BME280;67271;59.120;37.970;2023-06-22T00:24:55;100242.78;;;13.27;59.13
77867;BME280;67271;59.120;37.970;2023-06-22T00:27:21;100250.75;;;13.22;59.84
77867;BME280;67271;59.120;37.970;2023-06-22T00:29:47;100254.50;;;13.21;59.97
77867;BME280;67271;59.120;37.970;2023-06-22T00:32:13;100257.22;;;13.21;59.72
77867;BME280;67271;59.120;37.970;2023-06-22T00:34:39;100255.31;;;13.28;59.24
77867;BME280;67271;59.120;37.970;2023-06-22T00:37:05;100251.31;;;13.31;59.75
77867;BME280;67271;59.120;37.970;2023-06-22T00:39:33;100245.88;;;13.31;59.95
77867;BME280;67271;59.120;37.970;2023-06-22T00:41:59;100253.00;;;13.32;60.01
77867;BME280;67271;59.120;37.970;2023-06-22T00:44:25;100256.75;;;13.31;59.70
77867;BME280;67271;59.120;37.970;2023-06-22T00:46:54;100260.75;;;13.35;59.82
77867;BME280;67271;59.120;37.970;2023-06-22T00:49:20;100259.69;;;13.36;60.36
77867;BME280;67271;59.120;37.970;2023-06-22T00:51:49;100263.06;;;13.38;60.25
77867;BME280;67271;59.120;37.970;2023-06-22T00:54:15;100272.44;;;13.42;60.26
77867;BME280;67271;59.120;37.970;2023-06-22T00:56:41;100268.22;;;13.46;59.82
77867;BME280;67271;59.120;37.970;2023-06-22T00:59:08;100291.88;;;13.52;60.19
77867;BME280;67271;59.120;37.970;2023-06-22T01:01:37;100293.94;;;13.56;59.60
77867;BME280;67271;59.120;37.970;2023-06-22T01:04:06;100308.78;;;13.54;59.82
77867;BME280;67271;59.120;37.970;2023-06-22T01:06:42;100320.50;;;13.54;60.21
77867;BME280;67271;59.120;37.970;2023-06-22T01:09:23;100319.25;;;13.64;59.49
77867;BME280;67271;59.120;37.970;2023-06-22T01:11:57;100320.25;;;13.76;59.04
77867;BME280;67271;59.120;37.970;2023-06-22T01:17:01;100313.53;;;13.85;59.21
77867;BME280;67271;59.120;37.970;2023-06-22T01:19:46;100313.53;;;13.85;59.60
77867;BME280;67271;59.120;37.970;2023-06-22T01:22:17;100305.59;;;13.83;59.57
77867;BME280;67271;59.120;37.970;2023-06-22T01:30:23;100304.75;;;13.89;59.99
77867;BME280;67271;59.120;37.970;2023-06-22T01:32:53;100302.25;;;13.88;59.78
77867;BME280;67271;59.120;37.970;2023-06-22T01:35:20;100298.88;;;13.86;60.02
77867;BME280;67271;59.120;37.970;2023-06-22T01:37:47;100288.22;;;13.84;59.78
77867;BME280;67271;59.120;37.970;2023-06-22T01:40:14;100294.72;;;13.90;59.99
77867;BME280;67271;59.120;37.970;2023-06-22T01:42:41;100298.66;;;13.94;59.71
77867;BME280;67271;59.120;37.970;2023-06-22T01:45:09;100296.75;;;14.01;59.84
77867;BME280;67271;59.120;37.970;2023-06-22T01:47:37;100309.06;;;14.10;59.96
77867;BME280;67271;59.120;37.970;2023-06-22T01:50:05;100301.91;;;14.16;60.08
77867;BME280;67271;59.120;37.970;2023-06-22T01:52:32;100300.44;;;14.20;60.25
77867;BME280;67271;59.120;37.970;2023-06-22T01:55:00;100301.28;;;14.20;59.82
77867;BME280;67271;59.120;37.970;2023-06-22T01:57:26;100301.66;;;14.24;59.75
77867;BME280;67271;59.120;37.970;2023-06-22T02:00:00;100297.06;;;14.24;60.24
77867;BME280;67271;59.120;37.970;2023-06-22T02:05:16;100290.56;;;14.25;60.18
77867;BME280;67271;59.120;37.970;2023-06-22T02:08:08;100286.34;;;14.29;59.88
77867;BME280;67271;59.120;37.970;2023-06-22T02:10:36;100283.25;;;14.26;60.10
77867;BME280;67271;59.120;37.970;2023-06-22T02:13:06;100278.84;;;14.25;60.43
77867;BME280;67271;59.120;37.970;2023-06-22T02:15:34;100278.25;;;14.16;60.24
77867;BME280;67271;59.120;37.970;2023-06-22T02:18:00;100276.19;;;14.12;60.49
77867;BME280;67271;59.120;37.970;2023-06-22T02:20:26;100277.25;;;14.11;60.79
77867;BME280;67271;59.120;37.970;2023-06-22T02:22:52;100282.28;;;14.07;60.56
77867;BME280;67271;59.120;37.970;2023-06-22T02:25:18;100277.66;;;14.08;60.57
77867;BME280;67271;59.120;37.970;2023-06-22T02:27:45;100277.66;;;14.08;61.06
77867;BME280;67271;59.120;37.970;2023-06-22T02:30:12;100283.72;;;14.10;60.63
77867;BME280;67271;59.120;37.970;2023-06-22T02:32:38;100287.69;;;14.14;60.79
77867;BME280;67271;59.120;37.970;2023-06-22T02:35:08;100285.38;;;14.17;60.93
77867;BME280;67271;59.120;37.970;2023-06-22T02:37:36;100282.03;;;14.15;60.65
77867;BME280;67271;59.120;37.970;2023-06-22T02:40:10;100277.63;;;14.14;60.60
77867;BME280;67271;59.120;37.970;2023-06-22T02:42:37;100274.31;;;14.12;60.86
77867;BME280;67271;59.120;37.970;2023-06-22T02:45:03;100275.38;;;14.11;60.70
77867;BME280;67271;59.120;37.970;2023-06-22T02:47:29;100279.75;;;14.12;60.59
77867;BME280;67271;59.120;37.970;2023-06-22T02:49:56;100278.72;;;14.07;60.79
77867;BME280;67271;59.120;37.970;2023-06-22T02:52:22;100288.16;;;14.04;61.01
77867;BME280;67271;59.120;37.970;2023-06-22T02:54:48;100286.72;;;13.95;61.79
77867;BME280;67271;59.120;37.970;2023-06-22T02:57:14;100301.78;;;13.91;61.85
77867;BME280;67271;59.120;37.970;2023-06-22T02:59:42;100300.16;;;13.90;61.90
77867;BME280;67271;59.120;37.970;2023-06-22T03:02:10;100306.19;;;13.92;61.89
77867;BME280;67271;59.120;37.970;2023-06-22T03:04:37;100311.03;;;13.90;62.00
77867;BME280;67271;59.120;37.970;2023-06-22T03:07:03;100304.13;;;13.87;61.84
77867;BME280;67271;59.120;37.970;2023-06-22T03:09:31;100308.53;;;13.88;62.18
77867;BME280;67271;59.120;37.970;2023-06-22T03:11:57;100315.00;;;13.87;62.15
77867;BME280;67271;59.120;37.970;2023-06-22T03:14:27;100298.47;;;13.89;62.65
77867;BME280;67271;59.120;37.970;2023-06-22T03:16:53;100290.09;;;13.84;62.36
77867;BME280;67271;59.120;37.970;2023-06-22T03:19:19;100289.50;;;13.82;63.29
77867;BME280;67271;59.120;37.970;2023-06-22T03:21:47;100303.72;;;13.77;63.20
77867;BME280;67271;59.120;37.970;2023-06-22T03:24:13;100303.75;;;13.71;63.53
77867;BME280;67271;59.120;37.970;2023-06-22T03:26:39;100306.91;;;13.61;63.84
77867;BME280;67271;59.120;37.970;2023-06-22T03:29:05;100301.69;;;13.60;63.87
77867;BME280;67271;59.120;37.970;2023-06-22T03:31:33;100300.22;;;13.57;64.20
77867;BME280;67271;59.120;37.970;2023-06-22T03:33:59;100287.69;;;13.49;64.69
77867;BME280;67271;59.120;37.970;2023-06-22T03:36:25;100275.59;;;13.45;64.57
77867;BME280;67271;59.120;37.970;2023-06-22T03:38:52;100281.00;;;13.39;64.84
77867;BME280;67271;59.120;37.970;2023-06-22T03:41:18;100282.28;;;13.36;65.18
77867;BME280;67271;59.120;37.970;2023-06-22T03:43:44;100295.88;;;13.36;65.91
77867;BME280;67271;59.120;37.970;2023-06-22T03:46:10;100291.47;;;13.35;65.96
77867;BME280;67271;59.120;37.970;2023-06-22T03:48:36;100291.47;;;13.35;66.36
77867;BME280;67271;59.120;37.970;2023-06-22T03:51:02;100283.97;;;13.37;66.10
77867;BME280;67271;59.120;37.970;2023-06-22T03:53:29;100273.94;;;13.38;65.98
77867;BME280;67271;59.120;37.970;2023-06-22T03:55:55;100272.00;;;13.38;66.29
77867;BME280;67271;59.120;37.970;2023-06-22T03:58:21;100278.97;;;13.21;67.17
77867;BME280;67271;59.120;37.970;2023-06-22T04:00:51;100277.25;;;13.07;67.81
77867;BME280;67271;59.120;37.970;2023-06-22T04:03:18;100294.38;;;13.01;67.79
77867;BME280;67271;59.120;37.970;2023-06-22T04:05:45;100300.69;;;13.08;67.78
77867;BME280;67271;59.120;37.970;2023-06-22T04:08:12;100311.97;;;13.18;67.68
77867;BME280;67271;59.120;37.970;2023-06-22T04:10:38;100305.09;;;13.22;68.02
77867;BME280;67271;59.120;37.970;2023-06-22T04:13:04;100302.78;;;13.26;67.74
77867;BME280;67271;59.120;37.970;2023-06-22T04:15:30;100298.16;;;13.33;68.37
77867;BME280;67271;59.120;37.970;2023-06-22T04:17:56;100302.97;;;13.44;68.16
77867;BME280;67271;59.120;37.970;2023-06-22T04:20:23;100289.13;;;13.65;68.08
77867;BME280;67271;59.120;37.970;2023-06-22T04:22:53;100284.28;;;13.74;67.75
77867;BME280;67271;59.120;37.970;2023-06-22T04:25:20;100288.00;;;13.86;67.53
77867;BME280;67271;59.120;37.970;2023-06-22T04:27:47;100286.72;;;13.95;67.69
77867;BME280;67271;59.120;37.970;2023-06-22T04:30:12;100291.94;;;14.03;67.24
77867;BME280;67271;59.120;37.970;2023-06-22T04:32:40;100300.72;;;14.05;67.41
77867;BME280;67271;59.120;37.970;2023-06-22T04:35:07;100306.72;;;14.14;66.89
77867;BME280;67271;59.120;37.970;2023-06-22T04:37:33;100307.53;;;14.21;67.17
77867;BME280;67271;59.120;37.970;2023-06-22T04:39:59;100297.03;;;14.31;67.29
77867;BME280;67271;59.120;37.970;2023-06-22T04:42:28;100288.63;;;14.39;67.03
77867;BME280;67271;59.120;37.970;2023-06-22T04:44:54;100267.72;;;14.33;67.31
77867;BME280;67271;59.120;37.970;2023-06-22T04:47:20;100260.63;;;14.25;67.75
77867;BME280;67271;59.120;37.970;2023-06-22T04:49:46;100240.31;;;14.21;67.86
77867;BME280;67271;59.120;37.970;2023-06-22T04:52:13;100235.50;;;14.23;67.82
77867;BME280;67271;59.120;37.970;2023-06-22T04:54:40;100213.41;;;14.13;68.33
77867;BME280;67271;59.120;37.970;2023-06-22T04:57:13;100202.09;;;14.10;68.64
77867;BME280;67271;59.120;37.970;2023-06-22T04:59:40;100194.59;;;14.05;68.73
77867;BME280;67271;59.120;37.970;2023-06-22T05:02:07;100180.75;;;14.13;68.70
77867;BME280;67271;59.120;37.970;2023-06-22T05:04:34;100187.78;;;14.21;68.97
77867;BME280;67271;59.120;37.970;2023-06-22T05:07:01;100193.63;;;14.24;68.70
77867;BME280;67271;59.120;37.970;2023-06-22T05:09:29;100206.66;;;14.16;69.20
77867;BME280;67271;59.120;37.970;2023-06-22T05:11:55;100211.47;;;14.20;69.38
77867;BME280;67271;59.120;37.970;2023-06-22T05:14:25;100224.19;;;14.26;69.02
77867;BME280;67271;59.120;37.970;2023-06-22T05:16:51;100229.63;;;14.26;69.21
77867;BME280;67271;59.120;37.970;2023-06-22T05:19:19;100243.69;;;14.23;69.19
77867;BME280;67271;59.120;37.970;2023-06-22T05:21:45;100255.59;;;14.22;69.47
77867;BME280;67271;59.120;37.970;2023-06-22T05:24:11;100256.44;;;14.23;69.72
77867;BME280;67271;59.120;37.970;2023-06-22T05:26:37;100264.03;;;14.14;69.84
77867;BME280;67271;59.120;37.970;2023-06-22T05:29:03;100264.47;;;14.11;69.75
77867;BME280;67271;59.120;37.970;2023-06-22T05:31:29;100255.25;;;14.12;70.08
77867;BME280;67271;59.120;37.970;2023-06-22T05:33:55;100248.94;;;14.18;70.17
77867;BME280;67271;59.120;37.970;2023-06-22T05:36:22;100248.94;;;14.18;69.99
77867;BME280;67271;59.120;37.970;2023-06-22T05:38:51;100247.69;;;14.14;70.06
77867;BME280;67271;59.120;37.970;2023-06-22T05:41:17;100240.41;;;14.08;70.52
77867;BME280;67271;59.120;37.970;2023-06-22T05:43:46;100241.66;;;14.12;70.46
77867;BME280;67271;59.120;37.970;2023-06-22T05:46:12;100231.84;;;14.05;70.86
77867;BME280;67271;59.120;37.970;2023-06-22T05:48:38;100242.94;;;14.03;71.12
77867;BME280;67271;59.120;37.970;2023-06-22T05:51:04;100240.66;;;14.00;71.19
77867;BME280;67271;59.120;37.970;2023-06-22T05:53:29;100238.56;;;14.02;70.73
77867;BME280;67271;59.120;37.970;2023-06-22T05:55:55;100243.13;;;14.08;71.03
77867;BME280;67271;59.120;37.970;2023-06-22T05:58:21;100232.03;;;14.10;70.43
77867;BME280;67271;59.120;37.970;2023-06-22T06:00:47;100230.81;;;13.99;70.80
77867;BME280;67271;59.120;37.970;2023-06-22T06:03:13;100225.19;;;13.94;70.97
77867;BME280;67271;59.120;37.970;2023-06-22T06:05:43;100232.34;;;13.88;71.27
77867;BME280;67271;59.120;37.970;2023-06-22T06:08:10;100231.31;;;13.89;71.42
77867;BME280;67271;59.120;37.970;2023-06-22T06:10:36;100225.63;;;13.98;71.40
77867;BME280;67271;59.120;37.970;2023-06-22T06:13:02;100228.91;;;14.06;71.63
77867;BME280;67271;59.120;37.970;2023-06-22T06:15:30;100227.00;;;14.13;71.25
77867;BME280;67271;59.120;37.970;2023-06-22T06:17:57;100235.91;;;14.27;70.78
77867;BME280;67271;59.120;37.970;2023-06-22T06:20:24;100233.56;;;14.30;70.82
77867;BME280;67271;59.120;37.970;2023-06-22T06:22:51;100235.97;;;14.20;71.34
77867;BME280;67271;59.120;37.970;2023-06-22T06:25:18;100240.78;;;14.18;71.27
77867;BME280;67271;59.120;37.970;2023-06-22T06:27:46;100238.06;;;14.18;71.90
77867;BME280;67271;59.120;37.970;2023-06-22T06:30:14;100237.22;;;14.18;71.45
77867;BME280;67271;59.120;37.970;2023-06-22T06:32:41;100233.91;;;14.09;72.23
77867;BME280;67271;59.120;37.970;2023-06-22T06:35:08;100233.25;;;14.14;71.68
77867;BME280;67271;59.120;37.970;2023-06-22T06:41:58;100221.63;;;14.31;71.33
77867;BME280;67271;59.120;37.970;2023-06-22T06:44:24;100217.50;;;14.22;72.00
77867;BME280;67271;59.120;37.970;2023-06-22T06:46:50;100232.69;;;14.05;72.05
77867;BME280;67271;59.120;37.970;2023-06-22T06:49:16;100235.41;;;13.99;72.54
77867;BME280;67271;59.120;37.970;2023-06-22T06:51:45;100232.50;;;14.00;72.52
77867;BME280;67271;59.120;37.970;2023-06-22T06:54:11;100240.91;;;13.92;72.59
77867;BME280;67271;59.120;37.970;2023-06-22T06:56:36;100234.19;;;13.94;73.10
77867;BME280;67271;59.120;37.970;2023-06-22T06:59:02;100231.66;;;14.00;73.10
77867;BME280;67271;59.120;37.970;2023-06-22T07:01:30;100232.81;;;14.17;72.48
77867;BME280;67271;59.120;37.970;2023-06-22T07:03:59;100227.13;;;14.25;72.40
77867;BME280;67271;59.120;37.970;2023-06-22T07:06:26;100226.03;;;14.32;72.10
77867;BME280;67271;59.120;37.970;2023-06-22T07:08:55;100227.47;;;14.42;71.47
77867;BME280;67271;59.120;37.970;2023-06-22T07:11:21;100223.88;;;14.48;71.64
77867;BME280;67271;59.120;37.970;2023-06-22T07:13:47;100221.78;;;14.50;71.38
77867;BME280;67271;59.120;37.970;2023-06-22T07:16:13;100220.72;;;14.51;72.02
77867;BME280;67271;59.120;37.970;2023-06-22T07:18:39;100211.31;;;14.47;72.12
77867;BME280;67271;59.120;37.970;2023-06-22T07:21:08;100217.38;;;14.49;71.79
77867;BME280;67271;59.120;37.970;2023-06-22T07:23:34;100216.31;;;14.50;71.83
77867;BME280;67271;59.120;37.970;2023-06-22T07:26:00;100216.22;;;14.63;71.32
77867;BME280;67271;59.120;37.970;2023-06-22T07:28:31;100205.94;;;14.65;71.54
77867;BME280;67271;59.120;37.970;2023-06-22T07:31:02;100199.53;;;14.53;72.38
77867;BME280;67271;59.120;37.970;2023-06-22T07:33:29;100196.09;;;14.64;71.60
77867;BME280;67271;59.120;37.970;2023-06-22T07:35:55;100193.25;;;14.77;71.20
77867;BME280;67271;59.120;37.970;2023-06-22T07:38:21;100197.94;;;14.95;70.48
77867;BME280;67271;59.120;37.970;2023-06-22T07:40:47;100194.72;;;15.23;69.84
77867;BME280;67271;59.120;37.970;2023-06-22T07:43:13;100197.00;;;15.26;69.55
77867;BME280;67271;59.120;37.970;2023-06-22T07:45:39;100190.47;;;15.27;69.57
77867;BME280;67271;59.120;37.970;2023-06-22T07:48:07;100189.63;;;15.08;69.94
77867;BME280;67271;59.120;37.970;2023-06-22T07:50:33;100203.03;;;14.85;70.63
77867;BME280;67271;59.120;37.970;2023-06-22T07:52:59;100201.34;;;14.65;71.51
77867;BME280;67271;59.120;37.970;2023-06-22T07:55:24;100201.00;;;14.55;71.89
77867;BME280;67271;59.120;37.970;2023-06-22T07:57:50;100204.81;;;14.48;71.54
77867;BME280;67271;59.120;37.970;2023-06-22T08:00:17;100199.44;;;14.34;71.69
77867;BME280;67271;59.120;37.970;2023-06-22T08:02:45;100190.47;;;14.27;72.10
77867;BME280;67271;59.120;37.970;2023-06-22T08:05:11;100186.09;;;14.26;71.98
77867;BME280;67271;59.120;37.970;2023-06-22T08:07:38;100184.00;;;14.22;71.62
77867;BME280;67271;59.120;37.970;2023-06-22T08:10:05;100181.34;;;14.15;71.87
77867;BME280;67271;59.120;37.970;2023-06-22T08:12:31;100192.84;;;14.17;71.69
77867;BME280;67271;59.120;37.970;2023-06-22T08:14:57;100187.59;;;14.16;71.63
77867;BME280;67271;59.120;37.970;2023-06-22T08:17:24;100185.06;;;14.21;71.33
77867;BME280;67271;59.120;37.970;2023-06-22T08:19:50;100181.84;;;14.30;71.17
77867;BME280;67271;59.120;37.970;2023-06-22T08:22:16;100185.59;;;14.43;70.83
77867;BME280;67271;59.120;37.970;2023-06-22T08:24:43;100187.44;;;14.49;70.57
77867;BME280;67271;59.120;37.970;2023-06-22T08:27:10;100183.03;;;14.48;70.20
77867;BME280;67271;59.120;37.970;2023-06-22T08:29:39;100177.31;;;14.56;70.56
77867;BME280;67271;59.120;37.970;2023-06-22T08:32:05;100174.13;;;14.59;70.17
77867;BME280;67271;59.120;37.970;2023-06-22T08:37:51;100169.22;;;14.92;68.68
77867;BME280;67271;59.120;37.970;2023-06-22T08:40:20;100163.66;;;15.42;67.61
77867;BME280;67271;59.120;37.970;2023-06-22T08:42:46;100160.44;;;15.70;66.81
77867;BME280;67271;59.120;37.970;2023-06-22T08:45:13;100170.69;;;15.56;67.16
77867;BME280;67271;59.120;37.970;2023-06-22T08:47:40;100171.47;;;15.38;67.67
77867;BME280;67271;59.120;37.970;2023-06-22T08:50:17;100174.88;;;15.16;67.92
77867;BME280;67271;59.120;37.970;2023-06-22T08:52:42;100179.41;;;15.03;68.56
77867;BME280;67271;59.120;37.970;2023-06-22T08:55:09;100175.75;;;14.91;68.35
77867;BME280;67271;59.120;37.970;2023-06-22T08:57:36;100165.31;;;14.88;68.19
77867;BME280;67271;59.120;37.970;2023-06-22T09:00:06;100173.56;;;14.75;68.47
77867;BME280;67271;59.120;37.970;2023-06-22T09:02:37;100159.19;;;14.68;68.55
77867;BME280;67271;59.120;37.970;2023-06-22T09:05:04;100158.34;;;14.67;68.66
77867;BME280;67271;59.120;37.970;2023-06-22T09:07:30;100155.06;;;14.59;68.95
77867;BME280;67271;59.120;37.970;2023-06-22T09:09:56;100158.03;;;14.57;68.84
77867;BME280;67271;59.120;37.970;2023-06-22T09:12:22;100162.66;;;14.57;68.67
77867;BME280;67271;59.120;37.970;2023-06-22T09:14:51;100170.88;;;14.50;68.88
77867;BME280;67271;59.120;37.970;2023-06-22T09:17:17;100164.00;;;14.66;68.44
77867;BME280;67271;59.120;37.970;2023-06-22T09:19:43;100162.94;;;14.92;68.08
77867;BME280;67271;59.120;37.970;2023-06-22T09:22:09;100159.13;;;15.18;67.37
77867;BME280;67271;59.120;37.970;2023-06-22T09:24:35;100151.91;;;15.41;66.64
77867;BME280;67271;59.120;37.970;2023-06-22T09:27:01;100157.09;;;15.68;66.28
77867;BME280;67271;59.120;37.970;2023-06-22T09:29:27;100156.56;;;15.77;65.70
77867;BME280;67271;59.120;37.970;2023-06-22T09:31:53;100147.72;;;15.94;65.49
77867;BME280;67271;59.120;37.970;2023-06-22T09:34:21;100152.19;;;16.18;65.03
77867;BME280;67271;59.120;37.970;2023-06-22T09:36:47;100152.56;;;16.33;64.30
77867;BME280;67271;59.120;37.970;2023-06-22T09:39:13;100154.44;;;16.62;63.66
77867;BME280;67271;59.120;37.970;2023-06-22T09:41:39;100149.22;;;16.73;63.77
77867;BME280;67271;59.120;37.970;2023-06-22T09:44:05;100149.22;;;16.73;63.71
77867;BME280;67271;59.120;37.970;2023-06-22T09:46:31;100151.63;;;16.81;63.65
77867;BME280;67271;59.120;37.970;2023-06-22T09:48:57;100153.53;;;16.69;63.54
77867;BME280;67271;59.120;37.970;2023-06-22T09:51:23;100150.59;;;16.52;64.04
77867;BME280;67271;59.120;37.970;2023-06-22T09:53:50;100156.88;;;16.41;64.17
77867;BME280;67271;59.120;37.970;2023-06-22T09:56:16;100164.09;;;16.35;64.38
77867;BME280;67271;59.120;37.970;2023-06-22T09:58:43;100160.53;;;16.23;65.15
77867;BME280;67271;59.120;37.970;2023-06-22T10:01:09;100165.16;;;16.22;64.56
77867;BME280;67271;59.120;37.970;2023-06-22T10:03:36;100150.19;;;16.25;64.80
77867;BME280;67271;59.120;37.970;2023-06-22T10:06:02;100149.50;;;16.30;64.25
77867;BME280;67271;59.120;37.970;2023-06-22T10:08:28;100144.59;;;16.20;64.38
77867;BME280;67271;59.120;37.970;2023-06-22T10:10:57;100134.94;;;16.06;64.25
77867;BME280;67271;59.120;37.970;2023-06-22T10:13:22;100149.25;;;15.90;64.42
77867;BME280;67271;59.120;37.970;2023-06-22T10:15:48;100129.41;;;15.82;64.64
77867;BME280;67271;59.120;37.970;2023-06-22T10:18:19;100133.59;;;15.97;64.31
77867;BME280;67271;59.120;37.970;2023-06-22T10:20:49;100131.94;;;15.96;64.22
77867;BME280;67271;59.120;37.970;2023-06-22T10:23:22;100133.00;;;15.95;64.00
77867;BME280;67271;59.120;37.970;2023-06-22T10:25:48;100135.56;;;16.08;63.41
77867;BME280;67271;59.120;37.970;2023-06-22T10:28:14;100140.19;;;16.07;63.62
77867;BME280;67271;59.120;37.970;2023-06-22T10:30:40;100138.72;;;15.93;63.78
77867;BME280;67271;59.120;37.970;2023-06-22T10:33:10;100136.53;;;15.83;64.06
77867;BME280;67271;59.120;37.970;2023-06-22T10:35:36;100150.06;;;15.90;64.21
77867;BME280;67271;59.120;37.970;2023-06-22T10:38:05;100143.50;;;15.79;64.44
77867;BME280;67271;59.120;37.970;2023-06-22T10:40:32;100149.03;;;15.73;64.31
77867;BME280;67271;59.120;37.970;2023-06-22T10:42:58;100140.63;;;15.74;64.74
77867;BME280;67271;59.120;37.970;2023-06-22T10:45:24;100135.44;;;15.55;64.90
77867;BME280;67271;59.120;37.970;2023-06-22T10:47:49;100140.03;;;15.36;65.34
77867;BME280;67271;59.120;37.970;2023-06-22T10:50:16;100140.13;;;15.47;64.77
77867;BME280;67271;59.120;37.970;2023-06-22T10:52:41;100134.75;;;15.59;64.41
77867;BME280;67271;59.120;37.970;2023-06-22T10:55:08;100130.66;;;15.68;64.37
77867;BME280;67271;59.120;37.970;2023-06-22T10:57:34;100118.56;;;15.76;63.97
77867;BME280;67271;59.120;37.970;2023-06-22T11:00:00;100117.03;;;15.80;64.06
77867;BME280;67271;59.120;37.970;2023-06-22T11:02:26;100120.81;;;15.79;64.12
77867;BME280;67271;59.120;37.970;2023-06-22T11:04:53;100119.19;;;15.78;63.97
77867;BME280;67271;59.120;37.970;2023-06-22T11:07:19;100118.81;;;15.74;64.21
77867;BME280;67271;59.120;37.970;2023-06-22T11:09:45;100126.22;;;15.85;64.12
77867;BME280;67271;59.120;37.970;2023-06-22T11:12:11;100137.13;;;15.85;64.08
77867;BME280;67271;59.120;37.970;2023-06-22T11:14:39;100135.72;;;15.95;63.86
77867;BME280;67271;59.120;37.970;2023-06-22T11:17:07;100132.13;;;16.12;63.66
77867;BME280;67271;59.120;37.970;2023-06-22T11:19:33;100135.50;;;16.38;63.11
77867;BME280;67271;59.120;37.970;2023-06-22T11:21:59;100136.69;;;16.42;63.15
77867;BME280;67271;59.120;37.970;2023-06-22T11:24:25;100143.19;;;16.29;63.35
77867;BME280;67271;59.120;37.970;2023-06-22T11:26:51;100135.56;;;16.19;63.29
77867;BME280;67271;59.120;37.970;2023-06-22T11:29:17;100145.75;;;16.01;64.25
77867;BME280;67271;59.120;37.970;2023-06-22T11:31:43;100144.81;;;15.77;64.58
77867;BME280;67271;59.120;37.970;2023-06-22T11:34:09;100133.97;;;15.52;65.04
77867;BME280;67271;59.120;37.970;2023-06-22T11:36:34;100134.19;;;15.50;65.10
77867;BME280;67271;59.120;37.970;2023-06-22T11:39:01;100137.63;;;15.46;65.25
77867;BME280;67271;59.120;37.970;2023-06-22T11:41:27;100134.06;;;15.45;65.45
77867;BME280;67271;59.120;37.970;2023-06-22T11:43:54;100114.66;;;15.35;65.45
77867;BME280;67271;59.120;37.970;2023-06-22T11:46:20;100112.72;;;15.24;65.76
77867;BME280;67271;59.120;37.970;2023-06-22T11:48:46;100105.19;;;15.20;65.95
77867;BME280;67271;59.120;37.970;2023-06-22T11:51:11;100109.31;;;15.10;66.03
77867;BME280;67271;59.120;37.970;2023-06-22T11:53:37;100095.72;;;15.04;66.64
77867;BME280;67271;59.120;37.970;2023-06-22T11:56:03;100086.97;;;15.02;66.19
77867;BME280;67271;59.120;37.970;2023-06-22T11:58:29;100092.97;;;15.10;66.20
77867;BME280;67271;59.120;37.970;2023-06-22T12:00:55;100096.28;;;15.31;65.45
77867;BME280;67271;59.120;37.970;2023-06-22T12:03:21;100092.00;;;15.35;65.70
77867;BME280;67271;59.120;37.970;2023-06-22T12:05:47;100087.41;;;15.54;65.33
77867;BME280;67271;59.120;37.970;2023-06-22T12:08:13;100086.28;;;15.73;64.66
77867;BME280;67271;59.120;37.970;2023-06-22T12:10:39;100081.63;;;15.92;64.70
77867;BME280;67271;59.120;37.970;2023-06-22T12:13:05;100083.28;;;15.93;64.73
77867;BME280;67271;59.120;37.970;2023-06-22T12:15:31;100084.97;;;15.94;64.59
77867;BME280;67271;59.120;37.970;2023-06-22T12:17:57;100084.44;;;15.85;65.13
77867;BME280;67271;59.120;37.970;2023-06-22T12:20:23;100083.78;;;15.71;65.33
77867;BME280;67271;59.120;37.970;2023-06-22T12:22:49;100078.53;;;15.58;65.73
77867;BME280;67271;59.120;37.970;2023-06-22T12:25:17;100085.94;;;15.51;66.25
77867;BME280;67271;59.120;37.970;2023-06-22T12:27:43;100077.38;;;15.66;65.89
77867;BME280;67271;59.120;37.970;2023-06-22T12:30:09;100074.53;;;15.72;65.73
77867;BME280;67271;59.120;37.970;2023-06-22T12:32:36;100076.53;;;15.65;65.45
77867;BME280;67271;59.120;37.970;2023-06-22T12:35:02;100070.31;;;15.76;65.58
77867;BME280;67271;59.120;37.970;2023-06-22T12:37:28;100079.97;;;16.02;64.73
77867;BME280;67271;59.120;37.970;2023-06-22T12:39:57;100073.59;;;16.08;64.63
77867;BME280;67271;59.120;37.970;2023-06-22T12:42:23;100073.13;;;16.11;64.54
77867;BME280;67271;59.120;37.970;2023-06-22T12:44:48;100075.88;;;16.23;64.22
77867;BME280;67271;59.120;37.970;2023-06-22T12:47:14;100084.56;;;16.43;63.89
77867;BME280;67271;59.120;37.970;2023-06-22T12:49:40;100079.97;;;16.67;63.29
77867;BME280;67271;59.120;37.970;2023-06-22T12:52:09;100090.28;;;16.53;63.72
77867;BME280;67271;59.120;37.970;2023-06-22T12:54:36;100087.53;;;16.30;64.07
77867;BME280;67271;59.120;37.970;2023-06-22T12:57:02;100093.09;;;16.23;64.46
77867;BME280;67271;59.120;37.970;2023-06-22T12:59:28;100095.66;;;16.07;65.03